Time;durP1;ratioP1;P1;durP2;ratioP2;P2;SDS_P1;SDS_P2;PMS_P1;PMS_P2;Temp;Humidity;BMP_temperature;BMP_pressure;BME280_temperature;BME280_humidity;BME280_pressure;Samples;Min_cycle;Max_cycle;Signal;HPM_P1;HPM_P2
2024/02/08 00:01:07;;;;;;;2.78;2.58;;;5.10;99.90;;;;;;5048314;28;20198;-59
2024/02/08 00:03:33;;;;;;;4.43;4.03;;;5.10;99.90;;;;;;5042128;28;20321;-60
2024/02/08 00:06:00;;;;;;;3.53;3.22;;;5.10;99.90;;;;;;5047565;28;20210;-61
2024/02/08 00:08:27;;;;;;;3.13;2.80;;;5.10;99.90;;;;;;5048265;28;20214;-60
2024/02/08 00:10:55;;;;;;;3.90;3.60;;;5.10;99.90;;;;;;5048588;28;20210;-61
2024/02/08 00:13:23;;;;;;;3.42;3.13;;;5.10;99.90;;;;;;5049140;28;20245;-60
2024/02/08 00:15:50;;;;;;;3.63;3.40;;;5.10;99.90;;;;;;5048247;28;20680;-59
2024/02/08 00:18:18;;;;;;;3.30;3.00;;;5.00;99.90;;;;;;5048943;28;20238;-61
2024/02/08 00:20:45;;;;;;;3.47;3.17;;;5.10;99.90;;;;;;5048362;28;20210;-61
2024/02/08 00:23:14;;;;;;;4.28;3.88;;;5.10;99.90;;;;;;5047726;28;20294;-60
2024/02/08 00:25:40;;;;;;;3.65;3.35;;;5.10;99.90;;;;;;5048916;28;20238;-61
2024/02/08 00:28:11;;;;;;;3.22;2.72;;;5.10;99.90;;;;;;5034572;28;20211;-59
2024/02/08 00:30:40;;;;;;;3.53;3.22;;;5.10;99.90;;;;;;5047053;28;20217;-60
2024/02/08 00:33:07;;;;;;;2.92;2.60;;;5.10;99.90;;;;;;5047780;28;20542;-61
2024/02/08 00:35:34;;;;;;;3.70;3.40;;;5.10;99.90;;;;;;5048958;28;20308;-60
2024/02/08 00:38:03;;;;;;;3.30;2.95;;;5.10;99.90;;;;;;5048949;28;20214;-61
2024/02/08 00:40:30;;;;;;;2.35;2.17;;;5.10;99.90;;;;;;5048982;28;20234;-60
2024/02/08 00:42:57;;;;;;;3.17;2.97;;;5.10;99.90;;;;;;5048379;28;20202;-60
2024/02/08 00:45:25;;;;;;;2.15;2.05;;;5.10;99.90;;;;;;5048651;28;20795;-60
2024/02/08 00:47:54;;;;;;;2.47;2.28;;;5.00;99.90;;;;;;5048715;28;20210;-61
2024/02/08 00:50:21;;;;;;;2.80;2.60;;;5.00;99.90;;;;;;5048440;28;20627;-60
2024/02/08 00:52:48;;;;;;;3.17;2.88;;;5.00;99.90;;;;;;5047269;28;20705;-59
2024/02/08 00:55:16;;;;;;;3.13;2.92;;;5.00;99.90;;;;;;5047850;28;20251;-60
2024/02/08 00:57:43;;;;;;;2.60;2.35;;;5.00;99.90;;;;;;5047689;28;20210;-60
2024/02/08 01:00:10;;;;;;;2.90;2.70;;;5.00;99.90;;;;;;5048662;28;20216;-60
2024/02/08 01:02:39;;;;;;;1.85;1.70;;;5.00;99.90;;;;;;5048060;28;20327;-59
2024/02/08 01:05:07;;;;;;;2.30;2.20;;;4.90;99.90;;;;;;5048607;28;20695;-60
2024/02/08 01:07:34;;;;;;;2.33;2.22;;;4.90;99.90;;;;;;5048571;28;20301;-60
2024/02/08 01:10:01;;;;;;;2.00;1.90;;;4.90;99.90;;;;;;5048361;28;20210;-60
2024/02/08 01:12:28;;;;;;;3.05;1.70;;;4.90;99.90;;;;;;5048313;28;20590;-61
2024/02/08 01:14:55;;;;;;;1.33;1.23;;;4.90;99.90;;;;;;5048480;28;20265;-59
2024/02/08 01:17:21;;;;;;;2.92;2.70;;;4.90;99.90;;;;;;5048563;28;20221;-61
2024/02/08 01:19:50;;;;;;;2.35;2.20;;;4.90;99.90;;;;;;5048192;28;20236;-61
2024/02/08 01:22:19;;;;;;;2.75;2.50;;;4.90;99.90;;;;;;5047695;28;20206;-60
2024/02/08 01:24:48;;;;;;;3.13;2.83;;;5.00;99.90;;;;;;5048016;28;20241;-61
2024/02/08 01:27:15;;;;;;;2.83;2.58;;;5.00;99.90;;;;;;5047860;28;20224;-60
2024/02/08 01:29:41;;;;;;;2.15;1.95;;;4.90;99.90;;;;;;5048252;28;20206;-59
2024/02/08 01:32:08;;;;;;;2.60;2.40;;;4.90;99.90;;;;;;5047721;28;20716;-62
2024/02/08 01:34:35;;;;;;;3.63;2.55;;;4.90;99.90;;;;;;5047826;28;20238;-61
2024/02/08 01:37:03;;;;;;;3.00;2.65;;;4.90;99.90;;;;;;5048147;28;20210;-60
2024/02/08 01:39:30;;;;;;;2.40;2.20;;;4.90;99.90;;;;;;5048116;28;20304;-59
2024/02/08 01:41:58;;;;;;;2.47;2.28;;;4.90;99.90;;;;;;5047631;28;20202;-61
2024/02/08 01:44:25;;;;;;;3.47;1.95;;;4.90;99.90;;;;;;5048200;28;20728;-61
2024/02/08 01:46:51;;;;;;;2.70;2.50;;;4.90;99.90;;;;;;5048379;28;20712;-59
2024/02/08 01:49:27;;;;;;;3.55;2.47;;;4.90;99.90;;;;;;5047829;28;20217;-61
2024/02/08 01:51:59;;;;;;;3.00;2.80;;;4.90;99.90;;;;;;5047273;28;20320;-60
2024/02/08 01:54:28;;;;;;;4.22;2.88;;;4.90;99.90;;;;;;5047841;28;20230;-60
2024/02/08 01:56:55;;;;;;;2.67;2.47;;;4.90;99.90;;;;;;5048103;28;20554;-60
2024/02/08 01:59:22;;;;;;;2.80;2.60;;;4.90;99.90;;;;;;5047950;28;20546;-60
2024/02/08 02:01:51;;;;;;;2.83;2.60;;;4.90;99.90;;;;;;5047442;28;20387;-59
2024/02/08 02:04:18;;;;;;;2.72;2.50;;;4.90;99.90;;;;;;5047799;28;20241;-61
2024/02/08 02:06:45;;;;;;;2.30;2.17;;;4.90;99.90;;;;;;5047742;28;20222;-61
2024/02/08 02:09:23;;;;;;;2.40;2.30;;;4.90;99.90;;;;;;5047758;28;20238;-60
2024/02/08 02:11:55;;;;;;;2.05;1.85;;;4.90;99.90;;;;;;5047255;28;20226;-59
2024/02/08 02:14:29;;;;;;;3.88;2.30;;;4.90;99.90;;;;;;5047812;28;20256;-61
2024/02/08 02:17:03;;;;;;;2.35;2.22;;;4.90;99.90;;;;;;5048637;28;20229;-60
2024/02/08 02:19:31;;;;;;;6.22;2.30;;;4.80;99.90;;;;;;5048273;28;20206;-61
2024/02/08 02:21:59;;;;;;;2.40;2.20;;;4.80;99.90;;;;;;5047227;28;20232;-61
2024/02/08 02:24:26;;;;;;;2.33;1.73;;;4.90;99.90;;;;;;5047207;28;20595;-60
2024/02/08 02:26:53;;;;;;;2.00;1.90;;;4.80;99.90;;;;;;5047692;28;20659;-60
2024/02/08 02:29:22;;;;;;;1.50;1.40;;;4.80;99.90;;;;;;5047837;28;20211;-61
2024/02/08 02:31:50;;;;;;;2.65;2.45;;;4.80;99.90;;;;;;5048655;28;20226;-61
2024/02/08 02:34:16;;;;;;;3.72;3.45;;;4.80;99.90;;;;;;5051244;28;20250;-60
2024/02/08 02:36:45;;;;;;;7.15;6.60;;;4.80;99.90;;;;;;5051280;28;20229;-60
2024/02/08 02:39:13;;;;;;;5.63;5.15;;;4.80;99.90;;;;;;5050889;28;20210;-60
2024/02/08 02:41:41;;;;;;;2.80;2.60;;;4.80;99.90;;;;;;5050619;28;20210;-61
2024/02/08 02:44:08;;;;;;;3.22;2.85;;;4.80;99.90;;;;;;5050933;28;20724;-59
2024/02/08 02:46:36;;;;;;;3.85;3.50;;;4.80;99.90;;;;;;5051180;28;20218;-61
2024/02/08 02:49:03;;;;;;;3.10;2.80;;;4.80;99.90;;;;;;5050980;28;20211;-61
2024/02/08 02:51:30;;;;;;;3.17;2.92;;;4.80;99.90;;;;;;5050510;28;20228;-61
2024/02/08 02:53:58;;;;;;;3.25;3.08;;;4.90;99.90;;;;;;5051047;28;20241;-62
2024/02/08 02:56:27;;;;;;;2.35;2.15;;;4.90;99.90;;;;;;5051388;28;20210;-60
2024/02/08 02:58:54;;;;;;;2.35;2.25;;;4.90;99.90;;;;;;5051049;28;20210;-61
2024/02/08 03:01:21;;;;;;;1.60;1.50;;;4.90;99.90;;;;;;5050505;28;20594;-61
2024/02/08 03:03:49;;;;;;;1.45;1.35;;;4.90;99.90;;;;;;5050687;28;20234;-61
2024/02/08 03:06:15;;;;;;;1.50;1.40;;;4.90;99.90;;;;;;5050556;28;20218;-61
2024/02/08 03:08:43;;;;;;;1.83;1.52;;;4.90;99.90;;;;;;5050342;28;20230;-58
2024/02/08 03:11:11;;;;;;;1.35;1.25;;;4.90;99.90;;;;;;5050241;28;20215;-60
2024/02/08 03:13:40;;;;;;;5.13;1.55;;;4.90;99.90;;;;;;5050574;28;21042;-60
2024/02/08 03:16:09;;;;;;;2.10;2.00;;;4.90;99.90;;;;;;5050446;28;20689;-61
2024/02/08 03:18:43;;;;;;;2.25;2.05;;;4.90;99.90;;;;;;5050265;28;20303;-61
2024/02/08 03:21:10;;;;;;;1.70;1.60;;;4.90;99.90;;;;;;5050006;28;20780;-61
2024/02/08 03:23:38;;;;;;;1.83;1.52;;;4.90;99.90;;;;;;5050215;28;20337;-60
2024/02/08 03:26:07;;;;;;;2.80;2.60;;;5.00;99.90;;;;;;5050797;28;20214;-60
2024/02/08 03:28:35;;;;;;;2.50;2.40;;;5.00;99.90;;;;;;5050362;28;20213;-60
2024/02/08 03:31:03;;;;;;;2.40;2.20;;;5.00;99.90;;;;;;5049931;28;20228;-60
2024/02/08 03:33:31;;;;;;;1.60;1.50;;;5.00;99.90;;;;;;5050156;28;20754;-61
2024/02/08 03:35:59;;;;;;;2.38;2.17;;;5.00;99.90;;;;;;5050196;28;20230;-61
2024/02/08 03:38:26;;;;;;;1.73;1.63;;;5.00;99.90;;;;;;5050123;28;20317;-62
2024/02/08 03:40:54;;;;;;;2.45;2.25;;;5.00;99.90;;;;;;5049620;28;20284;-62
2024/02/08 03:43:23;;;;;;;3.90;3.20;;;5.00;99.90;;;;;;5049041;28;20207;-59
2024/02/08 03:45:50;;;;;;;1.80;1.70;;;5.00;99.90;;;;;;5049971;28;20220;-61
2024/02/08 03:48:19;;;;;;;2.13;1.92;;;5.00;99.90;;;;;;5049601;28;20739;-61
2024/02/08 03:50:50;;;;;;;2.25;2.05;;;5.00;99.90;;;;;;5050092;28;20250;-60
2024/02/08 03:53:20;;;;;;;1.95;1.73;;;5.00;99.90;;;;;;5049807;28;20738;-60
2024/02/08 03:55:48;;;;;;;2.53;2.15;;;5.00;99.90;;;;;;5050100;28;20639;-61
2024/02/08 03:58:15;;;;;;;1.90;1.80;;;5.00;99.90;;;;;;5049638;28;20220;-61
2024/02/08 04:00:45;;;;;;;1.95;1.85;;;5.00;99.90;;;;;;5049819;28;20216;-61
2024/02/08 04:03:14;;;;;;;2.33;2.13;;;5.00;99.90;;;;;;5049380;28;20333;-61
2024/02/08 04:08:53;;;;;;;1.90;1.60;;;5.00;99.90;;;;;;5049464;28;20236;-61
2024/02/08 04:54:59;;;;;;;4.40;3.95;;;5.10;99.90;;;;;;5048401;28;20229;-61
2024/02/08 04:57:26;;;;;;;6.70;4.75;;;5.10;99.90;;;;;;5048794;28;20597;-59
2024/02/08 04:59:53;;;;;;;6.13;4.95;;;5.10;99.90;;;;;;5048498;28;20246;-60
2024/02/08 05:02:20;;;;;;;6.95;5.93;;;5.10;99.90;;;;;;5048134;28;20210;-60
2024/02/08 05:04:48;;;;;;;6.30;5.65;;;5.10;99.90;;;;;;5048564;28;20234;-60
2024/02/08 05:07:15;;;;;;;5.80;5.40;;;5.10;99.90;;;;;;5049017;28;20224;-61
2024/02/08 05:09:42;;;;;;;3.85;3.45;;;5.10;99.90;;;;;;5048727;28;20224;-60
2024/02/08 05:12:12;;;;;;;5.30;4.28;;;5.10;99.90;;;;;;5047966;28;20216;-60
2024/02/08 05:14:39;;;;;;;4.47;3.80;;;5.10;99.90;;;;;;5048306;28;20262;-60
2024/02/08 05:17:08;;;;;;;4.38;3.97;;;5.10;99.90;;;;;;5048297;28;20221;-60
2024/02/08 05:19:35;;;;;;;3.90;3.47;;;5.10;99.90;;;;;;5048198;28;20254;-60
2024/02/08 05:22:02;;;;;;;3.97;3.58;;;5.10;99.90;;;;;;5047915;28;20299;-59
2024/02/08 05:24:30;;;;;;;4.57;4.18;;;5.10;99.90;;;;;;5048348;28;20261;-59
2024/02/08 05:26:57;;;;;;;5.88;4.25;;;5.10;99.90;;;;;;5048400;28;20245;-60
2024/02/08 05:29:26;;;;;;;7.88;4.85;;;5.10;99.90;;;;;;5048092;28;20211;-61
2024/02/08 05:31:53;;;;;;;4.57;4.18;;;5.10;99.90;;;;;;5047759;28;20979;-59
2024/02/08 05:34:21;;;;;;;4.68;3.83;;;5.10;99.90;;;;;;5048083;28;20234;-60
2024/02/08 05:36:49;;;;;;;4.47;4.05;;;5.10;99.90;;;;;;5048467;28;20268;-61
2024/02/08 05:39:23;;;;;;;6.10;4.50;;;5.10;99.90;;;;;;5048378;28;20221;-59
2024/02/08 05:41:53;;;;;;;7.15;6.00;;;5.10;99.90;;;;;;5047906;28;20218;-61
2024/02/08 05:44:20;;;;;;;6.28;4.55;;;5.20;99.90;;;;;;5048063;28;20226;-61
2024/02/08 05:46:49;;;;;;;5.90;5.28;;;5.10;99.90;;;;;;5048381;28;20220;-61
2024/02/08 05:49:15;;;;;;;6.97;5.57;;;5.10;99.90;;;;;;5048060;28;20218;-61
2024/02/08 05:51:46;;;;;;;8.03;5.63;;;5.20;99.90;;;;;;5047597;28;20221;-60
2024/02/08 05:54:16;;;;;;;7.60;5.55;;;5.20;99.90;;;;;;5047987;28;20510;-60
2024/02/08 05:56:43;;;;;;;8.02;6.18;;;5.10;99.90;;;;;;5047955;28;20767;-60
2024/02/08 05:59:10;;;;;;;6.40;5.15;;;5.10;99.90;;;;;;5047983;28;20214;-59
2024/02/08 06:01:44;;;;;;;3.50;3.17;;;5.10;99.90;;;;;;5047616;28;20586;-61
2024/02/08 06:04:12;;;;;;;2.75;2.58;;;5.10;99.90;;;;;;5047990;28;20317;-60
2024/02/08 06:06:48;;;;;;;2.40;2.13;;;5.10;99.90;;;;;;5048972;28;20260;-61
2024/02/08 06:09:37;;;;;;;3.45;3.15;;;5.10;99.90;;;;;;5051562;28;20243;-61
2024/02/08 06:12:09;;;;;;;3.33;3.03;;;5.10;99.90;;;;;;5051428;28;20214;-61
2024/02/08 06:14:38;;;;;;;3.10;2.80;;;5.10;99.90;;;;;;5051909;28;20623;-61
2024/02/08 06:17:07;;;;;;;3.95;2.90;;;5.10;99.90;;;;;;5051485;28;20276;-59
2024/02/08 06:19:37;;;;;;;3.28;2.92;;;5.10;99.90;;;;;;5051410;28;20217;-61
2024/02/08 06:22:16;;;;;;;4.18;3.13;;;5.10;99.90;;;;;;5050790;28;20206;-60
2024/02/08 06:24:45;;;;;;;3.20;2.90;;;5.10;99.90;;;;;;5070549;28;20613;-60
2024/02/08 06:27:13;;;;;;;3.15;2.10;;;5.10;99.90;;;;;;5071073;28;20591;-59
2024/02/08 06:29:42;;;;;;;3.70;3.22;;;5.20;99.90;;;;;;5071286;28;20206;-59
2024/02/08 06:32:23;;;;;;;6.93;5.47;;;5.10;99.90;;;;;;5070577;28;20315;-60
2024/02/08 06:34:55;;;;;;;7.50;5.72;;;5.10;99.90;;;;;;5071161;28;20336;-58
2024/02/08 06:37:30;;;;;;;3.38;3.08;;;5.10;99.90;;;;;;5071430;28;20278;-60
2024/02/08 06:39:57;;;;;;;2.53;2.33;;;5.10;99.90;;;;;;5071168;28;20205;-61
2024/02/08 06:42:44;;;;;;;3.30;2.20;;;5.10;99.90;;;;;;5070715;28;20235;-62
2024/02/08 06:48:14;;;;;;;1.42;1.33;;;5.10;99.90;;;;;;5071437;28;20208;-61
2024/02/08 07:37:36;;;;;;;2.90;2.70;;;5.10;99.90;;;;;;5050388;28;20289;-60
2024/02/08 07:40:23;;;;;;;3.15;2.85;;;5.10;99.90;;;;;;5050126;28;20605;-58
2024/02/08 07:42:53;;;;;;;1.60;1.50;;;5.10;99.90;;;;;;5049557;28;20253;-60
2024/02/08 07:45:26;;;;;;;2.55;2.35;;;5.10;99.90;;;;;;5050215;28;20235;-55
2024/02/08 07:47:58;;;;;;;3.35;2.65;;;5.20;99.90;;;;;;5050223;28;20568;-59
2024/02/08 07:50:35;;;;;;;1.83;1.73;;;5.20;99.90;;;;;;5050171;28;20210;-58
2024/02/08 07:53:08;;;;;;;2.45;2.00;;;5.20;99.90;;;;;;5049575;28;20217;-59
2024/02/08 07:55:53;;;;;;;2.28;2.10;;;5.20;99.90;;;;;;5049853;28;20214;-59
2024/02/08 07:58:27;;;;;;;1.95;1.80;;;5.20;99.90;;;;;;5049701;28;20305;-61
2024/02/08 08:00:56;;;;;;;2.65;2.40;;;5.20;99.90;;;;;;5049300;28;20693;-61
2024/02/08 08:03:31;;;;;;;3.85;3.40;;;5.20;99.90;;;;;;5049339;28;20685;-58
2024/02/08 08:05:58;;;;;;;2.67;2.28;;;5.20;99.90;;;;;;5049377;28;20292;-61
2024/02/08 08:08:28;;;;;;;3.22;2.50;;;5.20;99.90;;;;;;5034505;28;20681;-60
2024/02/08 08:11:02;;;;;;;3.80;2.78;;;5.30;99.90;;;;;;5044816;28;20206;-60
2024/02/08 08:18:56;;;;;;;3.22;2.40;;;5.30;99.90;;;;;;5031816;28;20291;-60
2024/02/08 08:21:25;;;;;;;4.38;2.90;;;5.30;99.90;;;;;;5040259;28;20216;-61
2024/02/08 08:23:59;;;;;;;2.80;2.58;;;5.30;99.90;;;;;;5028833;28;21114;-61
2024/02/08 08:26:37;;;;;;;4.10;2.80;;;5.40;99.90;;;;;;5027656;28;20670;-61
2024/02/08 08:29:13;;;;;;;3.63;2.60;;;5.40;99.90;;;;;;5028617;28;20593;-60
2024/02/08 08:31:51;;;;;;;3.88;2.53;;;5.40;99.90;;;;;;5028733;28;20204;-58
2024/02/08 08:37:07;;;;;;;2.60;2.40;;;5.40;99.90;;;;;;5030122;28;20214;-58
2024/02/08 08:40:20;;;;;;;2.30;1.88;;;5.40;99.90;;;;;;5029003;28;20207;-61
2024/02/08 08:42:50;;;;;;;8.35;5.72;;;5.40;99.90;;;;;;5028475;28;20206;-60
2024/02/08 08:45:17;;;;;;;5.95;4.35;;;5.50;99.90;;;;;;5028666;28;20235;-61
2024/02/08 08:47:43;;;;;;;4.15;3.75;;;5.50;99.90;;;;;;5028766;28;20203;-59
2024/02/08 08:50:18;;;;;;;2.85;2.65;;;5.50;99.90;;;;;;5028677;28;20246;-61
2024/02/08 08:52:49;;;;;;;3.17;2.80;;;5.50;99.90;;;;;;5028721;28;20215;-60
2024/02/08 08:55:18;;;;;;;3.25;2.95;;;5.50;99.90;;;;;;5028737;28;20304;-60
2024/02/08 08:57:51;;;;;;;7.50;6.43;;;5.50;99.90;;;;;;5028550;28;20202;-61
2024/02/08 09:00:31;;;;;;;6.93;6.22;;;5.60;99.90;;;;;;5028357;28;20625;-61
2024/02/08 09:02:59;;;;;;;8.05;7.25;;;5.60;99.90;;;;;;5028203;28;20207;-62
2024/02/08 09:05:31;;;;;;;5.72;5.10;;;5.60;99.90;;;;;;5028322;28;20737;-61
2024/02/08 09:07:59;;;;;;;7.22;5.95;;;5.60;99.90;;;;;;5028591;28;20215;-62
2024/02/08 09:10:33;;;;;;;4.60;3.95;;;5.70;99.90;;;;;;5028063;28;20225;-61
2024/02/08 09:13:00;;;;;;;7.07;6.00;;;5.70;99.90;;;;;;5027003;28;20290;-60
2024/02/08 09:15:28;;;;;;;5.80;4.80;;;5.70;99.90;;;;;;5027364;28;20246;-60
2024/02/08 09:18:07;;;;;;;5.15;4.65;;;5.70;99.90;;;;;;5028006;28;20306;-61
2024/02/08 09:20:37;;;;;;;5.80;5.30;;;5.80;99.90;;;;;;5028336;28;20284;-60
2024/02/08 09:23:12;;;;;;;5.20;4.35;;;5.80;99.90;;;;;;5047204;28;20692;-62
2024/02/08 09:25:44;;;;;;;5.72;5.22;;;5.80;99.90;;;;;;5046618;28;20315;-61
2024/02/08 09:28:24;;;;;;;7.07;5.50;;;5.80;99.90;;;;;;5041520;28;20214;-62
2024/02/08 09:30:53;;;;;;;6.10;4.78;;;5.90;99.90;;;;;;5047626;28;20305;-62
2024/02/08 09:33:44;;;;;;;7.45;6.25;;;5.90;99.90;;;;;;5047302;28;20209;-60
2024/02/08 09:36:13;;;;;;;6.00;5.40;;;5.90;99.90;;;;;;5072859;22;20784;-62
2024/02/08 09:38:44;;;;;;;9.25;6.25;;;5.90;99.90;;;;;;5060630;28;20202;-63
2024/02/08 09:41:15;;;;;;;4.10;3.65;;;6.00;99.90;;;;;;5061965;28;20205;-62
2024/02/08 09:43:44;;;;;;;4.55;3.53;;;6.10;99.90;;;;;;5062296;28;20289;-64
2024/02/08 09:46:28;;;;;;;4.45;3.63;;;6.10;99.90;;;;;;5053238;28;20225;-63
2024/02/08 09:48:59;;;;;;;4.60;3.53;;;6.10;99.90;;;;;;5043649;28;20207;-63
2024/02/08 09:51:35;;;;;;;4.75;3.67;;;6.20;99.90;;;;;;5030914;28;20212;-63
2024/02/08 09:54:15;;;;;;;4.55;3.40;;;6.20;99.90;;;;;;5051793;28;20320;-64
2024/02/08 09:56:50;;;;;;;3.83;3.33;;;6.30;99.90;;;;;;5051609;28;20731;-63
2024/02/08 09:59:40;;;;;;;3.70;3.40;;;6.30;99.90;;;;;;5041163;28;20213;-63
2024/02/08 10:02:23;;;;;;;4.80;4.30;;;6.40;99.90;;;;;;5034536;28;20246;-62
2024/02/08 10:04:56;;;;;;;5.75;3.45;;;6.40;99.90;;;;;;5039763;28;20933;-63
2024/02/08 10:07:34;;;;;;;4.55;3.72;;;6.40;99.90;;;;;;5051542;28;20221;-64
2024/02/08 10:10:14;;;;;;;3.53;3.15;;;6.40;99.90;;;;;;5050816;28;20202;-63
2024/02/08 10:13:04;;;;;;;4.72;4.20;;;6.50;99.90;;;;;;5050351;28;20210;-64
2024/02/08 10:15:39;;;;;;;8.13;6.22;;;6.50;99.90;;;;;;5043037;28;20262;-63
2024/02/08 10:18:10;;;;;;;9.30;8.40;;;6.60;99.90;;;;;;5034908;28;20655;-63
2024/02/08 10:20:46;;;;;;;13.10;10.90;;;6.60;99.90;;;;;;5046700;28;20206;-62
2024/02/08 10:26:20;;;;;;;9.35;6.10;;;6.70;99.90;;;;;;5028239;28;20306;-63
2024/02/08 10:28:47;;;;;;;9.60;7.63;;;6.70;99.90;;;;;;5045770;28;20207;-63
2024/02/08 10:31:22;;;;;;;10.15;7.00;;;6.70;99.90;;;;;;5043970;28;20210;-63
2024/02/08 10:33:57;;;;;;;8.55;5.80;;;6.70;99.90;;;;;;5050681;28;20229;-63
2024/02/08 10:36:31;;;;;;;5.18;3.47;;;6.80;99.90;;;;;;5047142;28;20238;-63
2024/02/08 10:39:08;;;;;;;4.18;3.78;;;6.80;99.90;;;;;;5034308;28;20202;-63
2024/02/08 10:41:38;;;;;;;4.40;4.00;;;6.80;99.90;;;;;;5043766;28;20299;-64
2024/02/08 10:44:06;;;;;;;4.72;4.22;;;6.80;99.90;;;;;;5050497;28;20203;-63
2024/02/08 10:46:42;;;;;;;6.43;4.50;;;6.90;99.90;;;;;;5045743;28;20774;-63
2024/02/08 10:49:11;;;;;;;3.63;3.30;;;6.90;99.90;;;;;;5037808;28;20612;-62
2024/02/08 10:51:43;;;;;;;3.65;3.15;;;6.90;99.90;;;;;;5049912;28;20848;-63
2024/02/08 10:54:15;;;;;;;2.85;2.65;;;7.00;99.90;;;;;;5050553;28;20245;-63
2024/02/08 10:56:48;;;;;;;2.75;2.22;;;7.00;99.90;;;;;;5041505;28;20206;-64
2024/02/08 10:59:23;;;;;;;3.38;2.90;;;7.00;99.90;;;;;;5034574;28;20211;-63
2024/02/08 11:02:08;;;;;;;2.60;2.40;;;7.00;99.90;;;;;;5027986;28;20202;-62
2024/02/08 11:04:40;;;;;;;2.05;1.70;;;7.00;99.90;;;;;;5030925;28;20230;-63
2024/02/08 11:07:17;;;;;;;1.88;1.77;;;7.10;99.90;;;;;;5036407;28;20209;-63
2024/02/08 11:09:45;;;;;;;2.90;2.70;;;7.10;99.90;;;;;;5038691;28;20217;-63
2024/02/08 11:12:18;;;;;;;2.70;2.50;;;7.20;99.90;;;;;;5049069;28;20713;-62
2024/02/08 11:14:53;;;;;;;3.10;2.72;;;7.20;99.90;;;;;;5049489;28;20226;-63
2024/02/08 11:17:23;;;;;;;2.45;2.25;;;7.20;99.90;;;;;;5049574;28;20216;-62
2024/02/08 11:19:56;;;;;;;3.92;3.00;;;7.20;99.90;;;;;;5037878;28;20208;-63
2024/02/08 11:22:42;;;;;;;4.85;3.53;;;7.20;99.90;;;;;;5041096;28;20450;-63
2024/02/08 11:25:20;;;;;;;5.38;4.88;;;7.30;99.90;;;;;;5044357;28;20782;-62
2024/02/08 11:27:48;;;;;;;6.53;5.82;;;7.30;99.90;;;;;;5037874;28;20225;-63
2024/02/08 11:30:19;;;;;;;4.75;4.45;;;7.30;99.90;;;;;;5044788;28;20210;-63
2024/02/08 11:33:01;;;;;;;4.80;4.03;;;7.30;99.90;;;;;;5035766;28;20254;-63
2024/02/08 11:35:31;;;;;;;7.47;4.95;;;7.30;99.90;;;;;;5037466;28;20231;-63
2024/02/08 11:38:15;;;;;;;5.95;5.45;;;7.30;99.90;;;;;;5041253;28;20206;-63
2024/02/08 11:40:45;;;;;;;6.85;6.18;;;7.30;99.90;;;;;;5033756;28;20213;-62
2024/02/08 11:43:23;;;;;;;7.45;5.95;;;7.30;99.90;;;;;;5033930;28;20708;-63
2024/02/08 11:45:53;;;;;;;10.98;9.65;;;7.30;99.90;;;;;;5030691;28;20258;-62
2024/02/08 11:48:27;;;;;;;6.85;6.20;;;7.40;99.90;;;;;;5037623;28;20303;-63
2024/02/08 11:50:58;;;;;;;6.50;5.90;;;7.40;99.90;;;;;;5047077;28;20316;-62
2024/02/08 11:53:33;;;;;;;12.18;6.65;;;7.50;99.90;;;;;;5039111;28;20294;-63
2024/02/08 11:56:07;;;;;;;6.10;5.57;;;7.50;99.90;;;;;;5034205;28;20691;-63
2024/02/08 11:58:40;;;;;;;6.57;5.35;;;7.50;99.90;;;;;;5036006;28;20216;-63
2024/02/08 12:01:07;;;;;;;6.82;6.22;;;7.60;99.90;;;;;;5040019;28;20307;-63
2024/02/08 12:03:41;;;;;;;9.57;7.05;;;7.60;99.90;;;;;;5035580;28;20211;-63
2024/02/08 12:06:26;;;;;;;6.38;5.78;;;7.70;99.90;;;;;;5032192;28;20314;-63
2024/02/08 12:08:58;;;;;;;7.10;5.57;;;7.70;99.90;;;;;;5030332;28;20211;-62
2024/02/08 12:11:29;;;;;;;5.63;5.13;;;7.70;99.90;;;;;;5035622;28;20210;-63
2024/02/08 12:13:57;;;;;;;4.93;4.13;;;7.80;99.90;;;;;;5042487;28;20676;-63
2024/02/08 12:16:26;;;;;;;5.10;4.75;;;7.80;99.90;;;;;;5034877;28;20228;-62
2024/02/08 12:18:56;;;;;;;5.07;4.68;;;7.90;99.90;;;;;;5038765;28;20665;-63
2024/02/08 12:21:24;;;;;;;6.95;5.70;;;7.90;99.90;;;;;;5039009;28;20253;-62
2024/02/08 12:23:53;;;;;;;6.30;5.90;;;7.90;99.90;;;;;;5036001;28;20214;-62
2024/02/08 12:26:23;;;;;;;7.18;6.47;;;8.00;99.90;;;;;;5042192;28;20225;-63
2024/02/08 12:28:56;;;;;;;5.88;5.13;;;8.10;99.90;;;;;;5035681;28;20215;-64
2024/02/08 12:31:24;;;;;;;7.10;5.85;;;8.10;99.90;;;;;;5039448;28;20598;-64
2024/02/08 12:33:53;;;;;;;7.38;5.53;;;8.20;99.90;;;;;;5039308;28;20294;-63
2024/02/08 12:36:23;;;;;;;7.70;4.85;;;8.20;99.90;;;;;;5034791;28;20234;-64
2024/02/08 12:38:53;;;;;;;5.05;4.55;;;8.30;99.90;;;;;;5031600;28;20207;-64
2024/02/08 12:41:22;;;;;;;5.45;4.75;;;8.30;99.90;;;;;;5035722;28;20214;-64
2024/02/08 12:43:51;;;;;;;5.85;5.40;;;8.40;99.90;;;;;;5036461;28;20548;-64
2024/02/08 12:46:18;;;;;;;6.70;6.00;;;8.40;99.90;;;;;;5037093;28;20258;-63
2024/02/08 12:48:47;;;;;;;5.85;4.88;;;8.40;99.90;;;;;;5043763;28;20291;-64
2024/02/08 12:51:18;;;;;;;8.68;7.90;;;8.50;99.90;;;;;;5038842;28;20218;-64
2024/02/08 12:53:46;;;;;;;7.63;5.80;;;8.50;99.90;;;;;;5039385;28;20210;-63
2024/02/08 12:56:14;;;;;;;7.47;6.78;;;8.50;99.90;;;;;;5032116;28;20231;-64
2024/02/08 12:58:41;;;;;;;7.75;7.05;;;8.50;99.90;;;;;;5033240;28;20206;-64
2024/02/08 13:01:14;;;;;;;7.45;6.72;;;8.60;99.90;;;;;;5035349;28;20295;-63
2024/02/08 13:03:41;;;;;;;9.00;7.88;;;8.60;99.90;;;;;;5029037;28;20207;-64
2024/02/08 13:06:12;;;;;;;9.15;6.80;;;8.60;99.90;;;;;;5043757;28;20709;-63
2024/02/08 13:08:44;;;;;;;9.07;8.18;;;8.70;99.90;;;;;;5042029;28;20210;-63
2024/02/08 13:11:11;;;;;;;10.93;9.73;;;8.70;99.90;;;;;;5035504;28;20215;-63
2024/02/08 13:13:41;;;;;;;10.27;9.10;;;8.70;99.90;;;;;;5043932;28;20453;-63
2024/02/08 13:16:09;;;;;;;11.02;7.85;;;8.70;99.90;;;;;;5045750;28;20234;-63
2024/02/08 13:18:38;;;;;;;12.60;9.70;;;8.80;99.90;;;;;;5035542;28;20762;-63
2024/02/08 13:21:05;;;;;;;11.45;9.48;;;8.80;99.90;;;;;;5039419;28;20449;-63
2024/02/08 13:23:34;;;;;;;12.77;11.50;;;8.90;99.90;;;;;;5041915;28;20297;-64
2024/02/08 13:26:01;;;;;;;18.88;16.05;;;8.90;99.90;;;;;;5036659;28;20552;-63
2024/02/08 13:28:32;;;;;;;13.73;12.05;;;9.00;99.90;;;;;;5035349;28;20257;-64
2024/02/08 13:31:05;;;;;;;8.73;7.53;;;9.10;99.90;;;;;;5043581;28;20652;-63
2024/02/08 13:33:36;;;;;;;4.25;2.30;;;9.20;99.90;;;;;;5029951;28;20206;-64
2024/02/08 13:36:08;;;;;;;4.30;2.75;;;9.30;99.90;;;;;;5035636;28;20238;-62
2024/02/08 13:38:39;;;;;;;3.17;2.97;;;9.40;99.90;;;;;;5038056;28;20233;-63
2024/02/08 13:41:09;;;;;;;3.03;2.77;;;9.50;99.90;;;;;;5037825;28;20455;-64
2024/02/08 13:43:39;;;;;;;3.83;3.63;;;9.60;99.90;;;;;;5038656;28;20456;-64
2024/02/08 13:46:08;;;;;;;2.03;1.83;;;9.70;99.90;;;;;;5030561;28;20469;-63
2024/02/08 13:48:35;;;;;;;1.43;1.10;;;9.80;99.90;;;;;;5033737;28;20829;-63
2024/02/08 13:51:06;;;;;;;1.60;1.50;;;9.90;99.90;;;;;;5038653;28;20820;-62
2024/02/08 13:53:35;;;;;;;1.00;1.00;;;9.90;99.90;;;;;;5036685;28;20453;-63
2024/02/08 13:56:07;;;;;;;0.80;0.80;;;10.00;99.90;;;;;;5034024;28;20489;-64
2024/02/08 13:58:36;;;;;;;0.83;0.83;;;10.10;99.90;;;;;;5034670;28;20453;-64
2024/02/08 14:01:03;;;;;;;1.27;1.00;;;10.10;99.90;;;;;;5034315;28;20533;-64
2024/02/08 14:03:34;;;;;;;0.95;0.93;;;10.10;99.90;;;;;;5037026;28;20454;-63
2024/02/08 14:06:01;;;;;;;0.70;0.70;;;10.20;99.90;;;;;;5040892;28;20268;-62
2024/02/08 14:08:29;;;;;;;1.10;1.00;;;10.20;99.90;;;;;;5030009;28;20834;-63
2024/02/08 14:10:57;;;;;;;0.60;0.60;;;10.20;99.90;;;;;;5035001;28;20453;-63
2024/02/08 14:13:34;;;;;;;1.50;1.40;;;10.30;99.90;;;;;;5036133;28;20485;-64
2024/02/08 14:16:07;;;;;;;0.70;0.70;;;10.30;99.90;;;;;;5031687;28;20501;-62
2024/02/08 14:18:35;;;;;;;2.37;1.97;;;10.30;99.90;;;;;;5027026;28;20450;-63
2024/02/08 14:21:02;;;;;;;1.10;1.10;;;10.30;99.90;;;;;;5031509;28;20449;-64
2024/02/08 14:23:37;;;;;;;4.57;2.07;;;10.40;99.90;;;;;;5031024;28;20480;-64
2024/02/08 14:28:55;;;;;;;2.90;1.63;;;10.40;99.90;;;;;;5037616;28;20437;-64
2024/02/08 14:31:22;;;;;;;2.43;2.23;;;10.40;99.90;;;;;;5043434;28;20459;-64
2024/02/08 14:33:51;;;;;;;1.50;1.40;;;10.50;99.90;;;;;;5048133;28;20452;-64
2024/02/08 14:36:18;;;;;;;0.80;0.80;;;10.50;99.90;;;;;;5038935;28;20575;-64
2024/02/08 14:38:45;;;;;;;1.33;1.33;;;10.50;99.90;;;;;;5032656;28;20446;-64
2024/02/08 14:41:25;;;;;;;1.50;1.10;;;10.50;99.90;;;;;;5048177;28;20468;-62
2024/02/08 14:43:54;;;;;;;1.57;1.47;;;10.60;99.90;;;;;;5041432;28;20528;-64
2024/02/08 14:46:25;;;;;;;2.97;1.50;;;10.60;99.90;;;;;;5039189;28;20472;-63
2024/02/08 14:48:53;;;;;;;2.20;1.40;;;10.70;99.90;;;;;;5041198;28;20909;-63
2024/02/08 14:51:30;;;;;;;2.40;1.43;;;10.70;99.90;;;;;;5039168;28;20463;-63
2024/02/08 14:53:58;;;;;;;1.23;1.10;;;10.80;99.90;;;;;;5033713;28;20441;-63
2024/02/08 14:56:26;;;;;;;5.33;1.97;;;10.80;99.90;;;;;;5042019;28;20502;-64
2024/02/08 14:59:09;;;;;;;2.47;1.90;;;10.80;99.90;;;;;;5042488;28;20481;-63
2024/02/08 15:01:38;;;;;;;4.53;2.40;;;10.80;99.90;;;;;;5036575;28;20444;-63
2024/02/08 15:04:15;;;;;;;3.13;2.90;;;10.90;99.90;;;;;;5035228;28;20449;-63